This is the latest recevied weather packets stored in our database for station/object 9M4GEK-3. If no packets are shown the sender has not sent any weather packets the latest 10 day(s).
| Time | Temp. | Humidity | Pressure | Rain* | Wind** | Luminosity | Snow |
|---|---|---|---|---|---|---|---|
| 1777805420 | 27.22° C | 75% | 1006 hPa | - | - | - | - |
| 1777804520 | 27.22° C | 74% | 1005.9 hPa | - | - | - | - |
| 1777803659 | 27.22° C | 74% | 1006 hPa | - | - | - | - |
| 1777803621 | 27.22° C | 74% | 1006 hPa | - | - | - | - |
| 1777802721 | 26.67° C | 75% | 1006 hPa | - | - | - | - |
| 1777801949 | 26.67° C | 75% | 1005.8 hPa | - | - | - | - |
| 1777801820 | 26.67° C | 75% | 1005.8 hPa | - | - | - | - |
| 1777800920 | 27.22° C | 75% | 1005.9 hPa | - | - | - | - |
| 1777800019 | 27.22° C | 75% | 1005.9 hPa | - | - | - | - |
| 1777799119 | 26.67° C | 76% | 1005.7 hPa | - | - | - | - |
| 1777798312 | 26.11° C | 78% | 1005.4 hPa | - | - | - | - |
| 1777798219 | 26.11° C | 78% | 1005.4 hPa | - | - | - | - |
| 1777797318 | 26.11° C | 81% | 1005.7 hPa | - | - | - | - |
| 1777796417 | 26.11° C | 82% | 1005.6 hPa | - | - | - | - |
| 1777795517 | 26.67° C | 83% | 1006.2 hPa | - | - | - | - |
| 1777794711 | 26.11° C | 82% | 1006.3 hPa | - | - | - | - |
| 1777794617 | 26.11° C | 82% | 1006.3 hPa | - | - | - | - |
| 1777793717 | 30.56° C | 58% | 1006.2 hPa | - | - | - | - |
| 1777792816 | 33.33° C | 49% | 1005.9 hPa | - | - | - | - |
| 1777791918 | 36.11° C | 44% | 1005.7 hPa | - | - | - | - |
| 1777791017 | 38.33° C | 39% | 1006.1 hPa | - | - | - | - |
| 1777790207 | 41.67° C | 36% | 1006.1 hPa | - | - | - | - |
| 1777790117 | 41.67° C | 36% | 1006.1 hPa | - | - | - | - |
| 1777789217 | 41.67° C | 35% | 1006.2 hPa | - | - | - | - |
| 1777788316 | 41.67° C | 35% | 1006.9 hPa | - | - | - | - |
* Rain since midnight (hover to see other rain measurements)
** Current wind speed in m/s (hover to see current wind gust speed)